Saint Anthony, Canada
Current Conditions -  °F | °C
As of 1:00 AM on Thursday 23 Oct 2014 (Local Time) from CYAY Reporting Station
Clear Clear  
Wind Chill: 28°   Ceiling: Unl
Heat Index: 36°   Visibility: 9mi
Dew Point: 34°   Wind: 12mph
Humidity: 93%   Direction: 230°SW
Pressure: 30.4"   Gusts: NA
Location:  51.48°N, 55.81°W
Report Text: CYAY 230300Z AUTO 23010KT 9SM CLR 02/01 A3040 RMK SLP297
Loading
Personal Weather Stations






























Interactive Weather Map
Tropical Storm Tracking
New forecast layout! Learn more

10-Day Weather Forecast

Advertisements
Track Severe Weather on mobile